This is the latest recevied weather packets stored in our database for station/object AB0TJ. If no packets are shown the sender has not sent any weather packets the latest 10 day(s).
| Time | Temp. | Humidity | Pressure | Rain* | Wind** | Luminosity | Snow |
|---|---|---|---|---|---|---|---|
| 1777870094 | 15° C | 31% | 1010.7 hPa | 0 mm | - | 0 W/m² | - |
| 1777869509 | 15° C | 31% | 1010.7 hPa | 0 mm | - | 0 W/m² | - |
| 1777869024 | 15° C | 31% | 1010.8 hPa | 0 mm | - | 0 W/m² | - |
| 1777868533 | 15° C | 31% | 1010.8 hPa | 0 mm | - | 0 W/m² | - |
| 1777867984 | 15° C | 31% | 1010.7 hPa | 0 mm | - | 0 W/m² | - |
| 1777867492 | 15.56° C | 34% | 1010.9 hPa | 0 mm | - | 0 W/m² | - |
| 1777867014 | 15.56° C | 34% | 1010.6 hPa | 0 mm | - | 0 W/m² | - |
| 1777845739 | 25.56° C | 14% | 1011.9 hPa | 0 mm | - | 367 W/m² | - |
| 1777844136 | 26.11° C | 15% | 1012.5 hPa | 0 mm | - | 718 W/m² | - |
| 1777843649 | 25.56° C | 14% | 1012.6 hPa | 0 mm | - | 513 W/m² | - |
| 1777843072 | 26.11° C | 13% | 1012.8 hPa | 0 mm | - | 292 W/m² | - |
| 1777840359 | 24.44° C | 18% | 1013.6 hPa | 0 mm | - | 800 W/m² | - |
| 1777839839 | 24.44° C | 19% | 1014 hPa | 0 mm | - | 739 W/m² | - |
| 1777839279 | 23.89° C | 19% | 1014.3 hPa | 0 mm | - | 826 W/m² | - |
| 1777838779 | 23.89° C | 19% | 1014.5 hPa | 0 mm | - | 885 W/m² | - |
| 1777837130 | 23.33° C | 19% | 1015.1 hPa | 0 mm | - | 382 W/m² | - |
| 1777835494 | 24.44° C | 19% | 1015.4 hPa | 0 mm | - | 414 W/m² | - |
| 1777833293 | 24.44° C | 18% | 1016.1 hPa | 0 mm | - | 755 W/m² | - |
| 1777832779 | 24.44° C | 19% | 1016 hPa | 0 mm | - | 850 W/m² | - |
| 1777827979 | 22.22° C | 23% | 1017.5 hPa | 0 mm | - | 509 W/m² | - |
| 1777825949 | 21.11° C | 23% | 1017.6 hPa | 0 mm | - | 510 W/m² | - |
| 1777825413 | 20.56° C | 24% | 1017.6 hPa | 0 mm | - | 510 W/m² | - |
| 1777824923 | 20° C | 24% | 1017.9 hPa | 0 mm | - | 474 W/m² | - |
| 1777824419 | 19.44° C | 25% | 1017.8 hPa | 0 mm | - | 494 W/m² | - |
| 1777821626 | 15.56° C | 30% | 1018.4 hPa | 0 mm | - | 220 W/m² | - |
* Rain latest hour (hover to see other rain measurements)
** Current wind speed in m/s (hover to see current wind gust speed)